TimeEDT,TemperatureF,Dew PointF,Humidity,Sea Level PressureIn,VisibilityMPH,Wind Direction,Wind SpeedMPH,Gust SpeedMPH,PrecipitationIn,Events,Conditions,WindDirDegrees,DateUTC
12:53 AM,55.0,53.1,93,30.15,10.0,Calm,Calm,-,N/A,,Clear,0,2012-10-04 04:53:00
1:53 AM,55.0,52.0,89,30.16,10.0,Calm,Calm,-,N/A,,Clear,0,2012-10-04 05:53:00
2:53 AM,55.9,52.0,87,30.15,10.0,South,4.6,-,N/A,,Clear,170,2012-10-04 06:53:00
3:53 AM,55.9,53.1,90,30.14,10.0,South,3.5,-,N/A,,Clear,190,2012-10-04 07:53:00
4:53 AM,55.0,52.0,89,30.14,10.0,Calm,Calm,-,N/A,,Clear,0,2012-10-04 08:53:00
5:53 AM,53.1,51.1,93,30.16,9.0,South,3.5,-,N/A,,Clear,190,2012-10-04 09:53:00
6:53 AM,55.0,52.0,89,30.16,10.0,SSW,4.6,-,N/A,,Clear,200,2012-10-04 10:53:00
7:53 AM,55.0,52.0,89,30.17,9.0,SSW,4.6,-,N/A,,Clear,200,2012-10-04 11:53:00
8:53 AM,57.9,53.1,84,30.17,10.0,South,5.8,-,N/A,,Clear,190,2012-10-04 12:53:00
9:53 AM,61.0,53.1,75,30.17,10.0,SSW,6.9,-,N/A,,Clear,210,2012-10-04 13:53:00
10:53 AM,64.9,53.1,65,30.16,10.0,SW,12.7,-,N/A,,Clear,220,2012-10-04 14:53:00
11:53 AM,69.1,52.0,54,30.15,10.0,SW,12.7,21.9,N/A,,Clear,230,2012-10-04 15:53:00
12:53 PM,72.0,50.0,46,30.14,10.0,SSW,12.7,20.7,N/A,,Partly Cloudy,210,2012-10-04 16:53:00
1:53 PM,73.0,48.9,42,30.12,10.0,SW,15.0,-,N/A,,Partly Cloudy,230,2012-10-04 17:53:00
2:53 PM,70.0,50.0,49,30.11,10.0,WSW,11.5,-,N/A,,Partly Cloudy,240,2012-10-04 18:53:00
3:53 PM,71.1,51.1,49,30.10,10.0,WNW,10.4,-,N/A,,Mostly Cloudy,290,2012-10-04 19:53:00
4:53 PM,71.1,54.0,55,30.10,10.0,West,8.1,-,N/A,,Mostly Cloudy,280,2012-10-04 20:53:00
5:53 PM,70.0,54.0,57,30.11,10.0,West,6.9,-,N/A,,Scattered Clouds,280,2012-10-04 21:53:00
6:53 PM,64.0,53.1,67,30.11,10.0,Calm,Calm,-,N/A,,Clear,0,2012-10-04 22:53:00
7:53 PM,57.9,54.0,87,30.12,10.0,Calm,Calm,-,N/A,,Clear,0,2012-10-04 23:53:00
8:53 PM,57.0,53.1,87,30.12,10.0,South,3.5,-,N/A,,Clear,180,2012-10-05 00:53:00
9:53 PM,57.0,52.0,83,30.10,10.0,South,4.6,-,N/A,,Clear,170,2012-10-05 01:53:00
10:53 PM,57.9,53.1,84,30.09,10.0,South,4.6,-,N/A,,Clear,170,2012-10-05 02:53:00
11:53 PM,59.0,53.1,81,30.08,10.0,South,6.9,-,N/A,,Clear,180,2012-10-05 03:53:00